Time;durP1;ratioP1;P1;durP2;ratioP2;P2;SDS_P1;SDS_P2;PMS_P1;PMS_P2;Temp;Humidity;BMP_temperature;BMP_pressure;BME280_temperature;BME280_humidity;BME280_pressure;Samples;Min_cycle;Max_cycle;Signal;HPM_P1;HPM_P2
2021/12/09 00:01:10;;;;;;;18.33;12.07;;;6.40;99.90;;;;;;4998972;28;20802;-49
2021/12/09 00:03:39;;;;;;;15.67;10.80;;;6.30;99.90;;;;;;4999067;28;20531;-49
2021/12/09 00:06:07;;;;;;;18.73;12.00;;;6.20;99.90;;;;;;4999307;28;20643;-51
2021/12/09 00:08:33;;;;;;;14.10;10.37;;;6.20;99.90;;;;;;4998504;28;20482;-53
2021/12/09 00:11:01;;;;;;;19.00;10.10;;;6.20;99.90;;;;;;4999206;28;20467;-50
2021/12/09 00:13:28;;;;;;;16.67;10.00;;;6.20;99.90;;;;;;4999908;28;20446;-49
2021/12/09 00:15:55;;;;;;;13.43;10.33;;;6.20;99.90;;;;;;4999438;28;20539;-52
2021/12/09 00:18:21;;;;;;;13.37;9.73;;;6.20;99.90;;;;;;4996845;28;20558;-48
2021/12/09 00:20:47;;;;;;;13.60;9.60;;;6.10;99.90;;;;;;4999906;28;20424;-50
2021/12/09 00:23:13;;;;;;;14.37;9.97;;;6.00;99.90;;;;;;5000407;28;20438;-53
2021/12/09 00:25:39;;;;;;;17.80;11.30;;;6.00;99.90;;;;;;4995146;28;20836;-51
2021/12/09 00:28:05;;;;;;;19.17;10.63;;;5.90;99.90;;;;;;5001126;28;20463;-50
2021/12/09 00:30:32;;;;;;;14.80;10.50;;;6.00;99.90;;;;;;4999698;28;20665;-49
2021/12/09 00:32:59;;;;;;;14.30;9.93;;;6.10;99.90;;;;;;4997289;28;20520;-47
2021/12/09 00:35:31;;;;;;;17.47;10.33;;;6.00;99.90;;;;;;4998784;28;20444;-51
2021/12/09 00:38:05;;;;;;;17.93;9.20;;;5.90;99.90;;;;;;5000355;28;20439;-48
2021/12/09 00:40:31;;;;;;;18.80;10.47;;;6.10;99.90;;;;;;4996182;28;20475;-48
2021/12/09 00:42:57;;;;;;;19.07;10.80;;;6.00;99.90;;;;;;4998604;28;20439;-48
2021/12/09 00:45:23;;;;;;;13.20;9.60;;;5.90;99.90;;;;;;4999222;28;20443;-49
2021/12/09 00:47:50;;;;;;;15.70;10.20;;;6.00;99.90;;;;;;4999883;28;20455;-48
2021/12/09 00:50:17;;;;;;;15.57;10.93;;;6.00;99.90;;;;;;4998530;28;20247;-48
2021/12/09 00:52:42;;;;;;;10.67;8.80;;;6.00;99.90;;;;;;5000531;28;20800;-47
2021/12/09 00:55:09;;;;;;;18.33;10.03;;;6.00;99.90;;;;;;4998544;28;20464;-47
2021/12/09 00:57:37;;;;;;;14.93;9.53;;;5.90;99.90;;;;;;4997114;28;20182;-51
2021/12/09 01:00:09;;;;;;;12.40;9.17;;;5.90;99.90;;;;;;4998034;28;21319;-47
2021/12/09 01:02:34;;;;;;;15.37;10.43;;;5.70;99.90;;;;;;4999030;28;20463;-47
2021/12/09 01:05:00;;;;;;;15.73;9.30;;;5.70;99.90;;;;;;5000604;28;20463;-47
2021/12/09 01:07:26;;;;;;;10.90;8.47;;;5.60;99.90;;;;;;4998648;28;20303;-49
2021/12/09 01:09:52;;;;;;;15.90;9.83;;;5.60;99.90;;;;;;5000089;28;20440;-50
2021/12/09 01:12:17;;;;;;;13.17;9.20;;;5.60;99.90;;;;;;4997975;28;20219;-47
2021/12/09 01:14:43;;;;;;;16.17;9.97;;;5.60;99.90;;;;;;5000595;28;20264;-48
2021/12/09 01:17:10;;;;;;;15.73;8.90;;;5.70;99.90;;;;;;4997541;28;20177;-47
2021/12/09 01:19:38;;;;;;;16.77;10.50;;;5.80;99.90;;;;;;4996327;28;20191;-49
2021/12/09 01:22:04;;;;;;;11.27;8.80;;;5.70;99.90;;;;;;4998655;28;20474;-48
2021/12/09 01:24:29;;;;;;;11.60;9.13;;;5.60;99.90;;;;;;4995517;28;20435;-48
2021/12/09 01:26:57;;;;;;;13.57;8.93;;;5.70;99.90;;;;;;4996582;28;20468;-47
2021/12/09 01:29:32;;;;;;;14.97;9.50;;;5.70;99.90;;;;;;4996180;28;20181;-49
2021/12/09 01:32:01;;;;;;;10.67;8.20;;;5.70;99.90;;;;;;4997550;28;20447;-50
2021/12/09 01:34:27;;;;;;;12.80;8.97;;;5.70;99.90;;;;;;5001964;28;20431;-47
2021/12/09 01:36:53;;;;;;;15.40;9.23;;;5.60;99.90;;;;;;5002215;28;20515;-51
2021/12/09 01:39:20;;;;;;;16.47;9.13;;;5.50;99.90;;;;;;5001202;28;21118;-52
2021/12/09 01:41:46;;;;;;;14.57;9.70;;;5.40;99.90;;;;;;5003570;28;20627;-51
2021/12/09 01:44:12;;;;;;;14.13;9.80;;;5.40;99.90;;;;;;4999312;28;20443;-48
2021/12/09 01:46:37;;;;;;;12.97;9.87;;;5.40;99.90;;;;;;5000838;28;20683;-48
2021/12/09 01:49:03;;;;;;;17.37;9.60;;;5.50;99.90;;;;;;5002220;28;20670;-50
2021/12/09 01:51:29;;;;;;;17.37;9.63;;;5.50;99.90;;;;;;4994955;28;20283;-49
2021/12/09 01:53:55;;;;;;;17.33;8.80;;;5.60;99.90;;;;;;5005840;28;20525;-51
2021/12/09 01:56:25;;;;;;;15.00;8.27;;;5.60;99.90;;;;;;4999826;28;20186;-51
2021/12/09 01:58:55;;;;;;;13.00;8.03;;;5.40;99.90;;;;;;5002366;28;20216;-51
2021/12/09 02:01:22;;;;;;;14.23;9.30;;;5.40;99.90;;;;;;5002734;28;20460;-47
2021/12/09 02:03:48;;;;;;;11.10;7.90;;;5.30;99.90;;;;;;4999660;28;20523;-48
2021/12/09 02:06:14;;;;;;;12.97;9.47;;;5.30;99.90;;;;;;5000319;28;20820;-55
2021/12/09 02:08:39;;;;;;;15.27;8.40;;;5.20;99.90;;;;;;5003364;28;20541;-46
2021/12/09 02:11:05;;;;;;;19.30;8.00;;;5.20;99.90;;;;;;4999619;28;20478;-48
2021/12/09 02:13:31;;;;;;;19.20;7.70;;;5.30;99.90;;;;;;5004379;28;20184;-48
2021/12/09 02:15:57;;;;;;;20.23;8.13;;;5.30;99.90;;;;;;5001772;28;20761;-48
2021/12/09 02:18:24;;;;;;;13.13;8.43;;;5.20;99.90;;;;;;5001197;28;20193;-50
2021/12/09 02:21:13;;;;;;;16.83;8.50;;;5.30;99.90;;;;;;5001409;28;20432;-49
2021/12/09 02:23:50;;;;;;;8.83;7.37;;;5.20;99.90;;;;;;4999687;28;20436;-49
2021/12/09 02:26:20;;;;;;;18.77;7.93;;;5.30;99.90;;;;;;5003693;28;20857;-48
2021/12/09 02:28:47;;;;;;;12.30;7.07;;;5.40;99.90;;;;;;5000142;28;20807;-47
2021/12/09 02:31:12;;;;;;;14.57;8.50;;;5.30;99.90;;;;;;4998651;28;20979;-50
2021/12/09 02:33:38;;;;;;;12.50;7.73;;;5.30;99.90;;;;;;5002176;28;20428;-47
2021/12/09 02:36:05;;;;;;;13.90;8.90;;;5.40;99.90;;;;;;4999324;28;20573;-52
2021/12/09 02:38:30;;;;;;;12.20;8.90;;;5.40;99.90;;;;;;5001598;28;20187;-51
2021/12/09 02:40:57;;;;;;;11.57;7.40;;;5.50;99.90;;;;;;5002554;28;20447;-52
2021/12/09 02:43:26;;;;;;;12.60;7.60;;;5.40;99.90;;;;;;4998180;28;20574;-47
2021/12/09 02:45:52;;;;;;;12.17;7.43;;;5.30;99.90;;;;;;5002564;28;20428;-49
2021/12/09 02:48:20;;;;;;;12.97;8.10;;;5.20;99.90;;;;;;5000693;28;20791;-49
2021/12/09 02:50:46;;;;;;;13.83;7.63;;;5.00;99.90;;;;;;4999384;28;20444;-49
2021/12/09 02:53:12;;;;;;;11.03;7.70;;;4.90;99.90;;;;;;5001424;28;20455;-48
2021/12/09 02:55:38;;;;;;;17.80;9.00;;;5.00;99.90;;;;;;4998663;28;20903;-52
2021/12/09 02:58:03;;;;;;;13.17;7.67;;;5.10;99.90;;;;;;4999860;28;20628;-53
2021/12/09 03:00:30;;;;;;;11.03;7.63;;;5.00;99.90;;;;;;4998933;28;20194;-53
2021/12/09 03:02:58;;;;;;;11.03;6.60;;;5.10;99.90;;;;;;4999167;28;20213;-50
2021/12/09 03:05:25;;;;;;;14.33;7.57;;;5.10;99.90;;;;;;5000845;28;20440;-47
2021/12/09 03:07:51;;;;;;;13.50;7.10;;;5.30;99.90;;;;;;4998917;28;20541;-51
2021/12/09 03:10:21;;;;;;;14.00;6.97;;;5.30;99.90;;;;;;5001379;28;20428;-51
2021/12/09 03:13:00;;;;;;;18.43;7.10;;;5.40;99.90;;;;;;4999719;28;20926;-50
2021/12/09 03:15:26;;;;;;;9.17;6.73;;;5.20;99.90;;;;;;4999523;28;20482;-51
2021/12/09 03:17:52;;;;;;;10.27;7.00;;;5.10;99.90;;;;;;5001557;28;20444;-48
2021/12/09 03:20:19;;;;;;;12.47;6.30;;;5.10;99.90;;;;;;4999406;28;20652;-49
2021/12/09 03:22:47;;;;;;;12.10;6.63;;;5.20;99.90;;;;;;5001668;28;20834;-51
2021/12/09 03:25:15;;;;;;;12.90;6.43;;;5.10;99.90;;;;;;4999685;28;20538;-53
2021/12/09 03:27:41;;;;;;;9.23;6.67;;;5.10;99.90;;;;;;4999138;28;20574;-48
2021/12/09 03:30:10;;;;;;;10.97;6.80;;;5.20;99.90;;;;;;4999014;28;20517;-47
2021/12/09 03:32:36;;;;;;;9.30;6.33;;;5.20;99.90;;;;;;5000362;28;20327;-50
2021/12/09 03:35:02;;;;;;;12.30;7.10;;;5.00;99.90;;;;;;4999015;28;20535;-45
2021/12/09 03:37:28;;;;;;;11.37;6.77;;;5.00;99.90;;;;;;5000044;28;20196;-50
2021/12/09 03:39:55;;;;;;;11.97;6.60;;;5.10;99.90;;;;;;4999658;28;21155;-50
2021/12/09 03:42:26;;;;;;;10.93;7.07;;;5.00;99.90;;;;;;4999704;28;20686;-49
2021/12/09 03:44:53;;;;;;;11.50;6.03;;;5.00;99.90;;;;;;4998608;28;20776;-46
2021/12/09 03:47:22;;;;;;;13.43;7.20;;;5.20;99.90;;;;;;5001310;28;21003;-49
2021/12/09 03:49:49;;;;;;;10.77;6.50;;;5.40;99.90;;;;;;5000395;28;20828;-50
2021/12/09 03:52:15;;;;;;;12.93;6.20;;;5.40;99.90;;;;;;4998509;28;20460;-48
2021/12/09 03:54:41;;;;;;;11.90;6.73;;;5.40;99.90;;;;;;4998775;28;21036;-48
2021/12/09 03:57:08;;;;;;;12.80;6.83;;;5.40;99.90;;;;;;5000374;28;21220;-47
2021/12/09 03:59:34;;;;;;;12.60;5.53;;;5.40;99.90;;;;;;4999952;28;20432;-50
2021/12/09 04:02:00;;;;;;;15.20;6.87;;;5.20;99.90;;;;;;5000452;28;20510;-48
2021/12/09 04:04:26;;;;;;;9.13;6.47;;;5.20;99.90;;;;;;4998573;28;20938;-49
2021/12/09 04:06:52;;;;;;;10.30;6.20;;;5.20;99.90;;;;;;4999177;28;20197;-48
2021/12/09 04:09:22;;;;;;;6.90;5.40;;;5.10;99.90;;;;;;4998877;28;21087;-47
2021/12/09 04:11:48;;;;;;;9.87;6.40;;;5.10;99.90;;;;;;4999846;28;20472;-47
2021/12/09 04:14:13;;;;;;;12.43;6.43;;;5.00;99.90;;;;;;4999772;28;20436;-48
2021/12/09 04:16:40;;;;;;;11.70;5.97;;;5.00;99.90;;;;;;5000459;28;20436;-48
2021/12/09 04:19:07;;;;;;;16.00;6.80;;;5.00;99.90;;;;;;4997972;28;20540;-47
2021/12/09 04:21:34;;;;;;;13.80;6.70;;;4.90;99.90;;;;;;4998620;28;20466;-47
2021/12/09 04:24:00;;;;;;;13.67;6.47;;;4.90;99.90;;;;;;4998677;28;20953;-48
2021/12/09 04:26:25;;;;;;;10.93;6.57;;;4.90;99.90;;;;;;4998487;28;20437;-49
2021/12/09 04:28:51;;;;;;;10.70;6.30;;;4.90;99.90;;;;;;4995006;28;20725;-48
2021/12/09 04:31:17;;;;;;;12.10;6.47;;;5.00;99.90;;;;;;4998176;28;20655;-46
2021/12/09 04:33:43;;;;;;;8.13;6.30;;;5.00;99.90;;;;;;5000363;28;20189;-49
2021/12/09 04:36:10;;;;;;;11.33;5.33;;;5.00;99.90;;;;;;5000078;28;20193;-48
2021/12/09 04:38:36;;;;;;;8.83;5.60;;;5.00;99.90;;;;;;4998863;28;20887;-54
2021/12/09 04:41:02;;;;;;;11.33;5.77;;;4.90;99.90;;;;;;4997669;28;20491;-48
2021/12/09 04:43:27;;;;;;;12.83;6.33;;;4.80;99.90;;;;;;4998051;28;20475;-49
2021/12/09 04:45:53;;;;;;;19.13;7.50;;;4.70;99.90;;;;;;4999180;28;20428;-47
2021/12/09 04:48:18;;;;;;;10.43;6.40;;;4.70;99.90;;;;;;4999454;28;20637;-49
2021/12/09 04:50:45;;;;;;;14.27;7.13;;;4.60;99.90;;;;;;4997608;28;20190;-54
2021/12/09 04:53:11;;;;;;;17.33;7.93;;;4.50;99.90;;;;;;5001481;28;20180;-50
2021/12/09 04:55:37;;;;;;;10.07;6.17;;;4.40;99.90;;;;;;5000855;28;20498;-49
2021/12/09 04:58:07;;;;;;;15.83;6.67;;;4.50;99.90;;;;;;5001668;28;21000;-48
2021/12/09 05:00:37;;;;;;;14.50;6.93;;;4.60;99.90;;;;;;4999165;28;20958;-48
2021/12/09 05:03:11;;;;;;;15.30;8.07;;;4.70;99.90;;;;;;5003687;28;20913;-48
2021/12/09 05:05:40;;;;;;;20.27;6.73;;;4.70;99.90;;;;;;5001669;28;20937;-50
2021/12/09 05:08:09;;;;;;;13.27;6.63;;;4.70;99.90;;;;;;5002088;28;20459;-51
2021/12/09 05:10:50;;;;;;;11.83;6.70;;;4.70;99.90;;;;;;5002752;28;20467;-52
2021/12/09 05:13:17;;;;;;;12.50;7.30;;;4.70;99.90;;;;;;5003364;28;20424;-50
2021/12/09 05:15:43;;;;;;;18.00;8.00;;;4.50;99.90;;;;;;5004809;28;20424;-52
2021/12/09 05:18:09;;;;;;;12.07;7.60;;;4.60;99.90;;;;;;5005618;28;20438;-50
2021/12/09 05:20:35;;;;;;;11.23;7.20;;;4.60;99.90;;;;;;5000553;28;20444;-52
2021/12/09 05:23:00;;;;;;;13.97;7.67;;;4.60;99.90;;;;;;5004200;28;20443;-51
2021/12/09 05:25:26;;;;;;;11.77;6.30;;;4.50;99.90;;;;;;5005451;28;20188;-50
2021/12/09 05:27:53;;;;;;;11.33;7.50;;;4.60;99.90;;;;;;5004125;28;20239;-49
2021/12/09 05:30:24;;;;;;;11.50;7.23;;;4.40;99.90;;;;;;5002232;28;20178;-47
2021/12/09 05:32:50;;;;;;;18.20;8.37;;;4.40;99.90;;;;;;5000574;28;20444;-46
2021/12/09 05:35:16;;;;;;;13.97;7.77;;;4.40;99.90;;;;;;5005747;28;20780;-48
2021/12/09 05:37:43;;;;;;;11.33;7.97;;;4.30;99.90;;;;;;5001581;28;20441;-48
2021/12/09 05:40:10;;;;;;;16.10;8.13;;;4.20;99.90;;;;;;5002500;28;21069;-48
2021/12/09 05:42:36;;;;;;;22.50;9.70;;;4.30;99.90;;;;;;5006216;28;20448;-48
2021/12/09 05:45:03;;;;;;;16.33;8.70;;;4.40;99.90;;;;;;5000901;28;20529;-47
2021/12/09 05:47:30;;;;;;;11.80;8.90;;;4.40;99.90;;;;;;5003243;28;20471;-49
2021/12/09 05:49:56;;;;;;;16.97;8.10;;;4.30;99.90;;;;;;5000647;28;20451;-47
2021/12/09 05:52:21;;;;;;;13.97;8.87;;;4.30;99.90;;;;;;5001057;28;20455;-50
2021/12/09 05:54:47;;;;;;;15.97;7.80;;;4.50;99.90;;;;;;5004408;28;20195;-48
2021/12/09 05:57:13;;;;;;;25.70;8.50;;;4.40;99.90;;;;;;5001496;28;20192;-49
2021/12/09 05:59:41;;;;;;;16.83;8.33;;;4.50;99.90;;;;;;5002327;28;20679;-48
2021/12/09 06:02:10;;;;;;;21.93;9.23;;;4.40;99.90;;;;;;4997942;28;20501;-48
2021/12/09 06:04:36;;;;;;;14.13;8.80;;;4.40;99.90;;;;;;5000776;28;20440;-49
2021/12/09 06:07:03;;;;;;;14.23;7.87;;;4.40;99.90;;;;;;5005457;28;20725;-50
2021/12/09 06:09:28;;;;;;;21.33;8.57;;;4.40;99.90;;;;;;5001680;28;20499;-52
2021/12/09 06:11:54;;;;;;;12.97;7.57;;;4.40;99.90;;;;;;5000450;28;21422;-48
2021/12/09 06:14:20;;;;;;;11.10;7.47;;;4.40;99.90;;;;;;5002674;28;20177;-48
2021/12/09 06:16:45;;;;;;;13.00;7.67;;;4.50;99.90;;;;;;5002124;28;20200;-48
2021/12/09 06:19:12;;;;;;;12.37;7.43;;;4.60;99.90;;;;;;5001945;28;20263;-50
2021/12/09 06:21:37;;;;;;;11.77;7.30;;;4.50;99.90;;;;;;5001295;28;20294;-48
2021/12/09 06:24:03;;;;;;;11.67;7.97;;;4.60;99.90;;;;;;5002668;28;20523;-48
2021/12/09 06:26:31;;;;;;;17.90;7.80;;;4.60;99.90;;;;;;5001988;28;20190;-47
2021/12/09 06:28:58;;;;;;;12.63;7.73;;;4.60;99.90;;;;;;5002729;28;20465;-47
2021/12/09 06:31:23;;;;;;;17.37;8.17;;;4.80;99.90;;;;;;5000281;28;20818;-49
2021/12/09 06:33:50;;;;;;;13.47;7.67;;;4.70;99.90;;;;;;5001523;28;20440;-48
2021/12/09 06:36:15;;;;;;;9.10;6.50;;;4.70;99.90;;;;;;5000772;28;20182;-49
2021/12/09 06:38:41;;;;;;;13.03;7.60;;;4.60;99.90;;;;;;5003126;28;20440;-49
2021/12/09 06:41:08;;;;;;;10.53;7.47;;;4.70;99.90;;;;;;5002626;28;20240;-46
2021/12/09 06:43:37;;;;;;;9.00;7.10;;;4.60;99.90;;;;;;4999011;28;20638;-47
2021/12/09 06:46:05;;;;;;;12.10;9.07;;;4.70;99.90;;;;;;5002581;28;20508;-50
2021/12/09 06:48:31;;;;;;;12.33;7.50;;;4.80;99.90;;;;;;5003007;28;20842;-49
2021/12/09 06:50:56;;;;;;;12.40;8.17;;;4.80;99.90;;;;;;5002737;28;20459;-50
2021/12/09 06:53:22;;;;;;;20.33;8.70;;;4.90;99.90;;;;;;5002623;28;20466;-48
2021/12/09 06:55:48;;;;;;;13.10;8.13;;;4.80;99.90;;;;;;5004301;28;20211;-48
2021/12/09 06:58:14;;;;;;;14.67;8.27;;;4.90;99.90;;;;;;5000364;28;20547;-49
2021/12/09 07:00:45;;;;;;;10.63;7.40;;;4.90;99.90;;;;;;4999453;28;20653;-50
2021/12/09 07:03:11;;;;;;;13.83;8.67;;;5.10;99.90;;;;;;4998316;28;21130;-47
2021/12/09 07:05:37;;;;;;;10.13;7.40;;;5.10;99.90;;;;;;4998291;28;20444;-50
2021/12/09 07:08:05;;;;;;;12.93;8.43;;;5.10;99.90;;;;;;4998275;28;20479;-53
2021/12/09 07:10:31;;;;;;;18.63;9.50;;;5.20;99.90;;;;;;4998321;28;20757;-47
2021/12/09 07:12:57;;;;;;;15.30;8.73;;;5.00;99.90;;;;;;4997756;28;20980;-49
2021/12/09 07:15:23;;;;;;;17.20;9.43;;;5.00;99.90;;;;;;4996267;28;20486;-47
2021/12/09 07:17:49;;;;;;;15.53;9.00;;;5.00;99.90;;;;;;4997239;28;20601;-49
2021/12/09 07:20:22;;;;;;;12.60;8.00;;;5.00;99.90;;;;;;4996075;28;20527;-51
2021/12/09 07:22:49;;;;;;;11.70;7.80;;;5.00;99.90;;;;;;4996167;28;21344;-48
2021/12/09 07:25:15;;;;;;;14.37;8.10;;;4.90;99.90;;;;;;4997563;28;20492;-52
2021/12/09 07:27:41;;;;;;;19.43;9.07;;;4.80;99.90;;;;;;4999866;28;20941;-48
2021/12/09 07:30:09;;;;;;;13.03;8.00;;;4.80;99.90;;;;;;4999876;28;20436;-52
2021/12/09 07:32:36;;;;;;;13.10;8.70;;;4.80;99.90;;;;;;4997350;28;21421;-47
2021/12/09 07:35:03;;;;;;;13.07;8.50;;;4.70;99.90;;;;;;4999714;28;20432;-50
2021/12/09 07:37:29;;;;;;;14.53;8.60;;;4.70;99.90;;;;;;4996450;28;20834;-50
2021/12/09 07:39:54;;;;;;;14.70;8.63;;;4.80;99.90;;;;;;4998081;28;20446;-50
2021/12/09 07:42:20;;;;;;;12.80;9.93;;;4.80;99.90;;;;;;4997863;28;20706;-52
2021/12/09 07:44:46;;;;;;;12.23;8.20;;;4.80;99.90;;;;;;4998744;28;20200;-49
2021/12/09 07:47:11;;;;;;;13.80;8.83;;;4.80;99.90;;;;;;4992112;28;20212;-52
2021/12/09 07:49:37;;;;;;;15.73;9.50;;;4.80;99.90;;;;;;5000609;28;20181;-52
2021/12/09 07:52:04;;;;;;;19.63;9.37;;;4.80;99.90;;;;;;4997185;28;20353;-50
2021/12/09 07:54:31;;;;;;;14.23;8.93;;;4.80;99.90;;;;;;4995973;28;20189;-52
2021/12/09 07:56:57;;;;;;;13.47;8.70;;;4.90;99.90;;;;;;4998827;28;20545;-54
2021/12/09 07:59:23;;;;;;;10.83;9.07;;;4.80;99.90;;;;;;5002116;28;20551;-48
2021/12/09 08:01:49;;;;;;;13.90;8.40;;;4.80;99.90;;;;;;4994860;28;20464;-49
2021/12/09 08:04:16;;;;;;;18.30;8.93;;;4.80;99.90;;;;;;5000740;28;20793;-51
2021/12/09 08:06:42;;;;;;;18.37;9.40;;;4.90;99.90;;;;;;4993076;28;20802;-52
2021/12/09 08:09:09;;;;;;;14.13;9.13;;;4.90;99.90;;;;;;4998727;28;20589;-49
2021/12/09 08:11:37;;;;;;;14.57;9.00;;;4.90;99.90;;;;;;4997347;28;20551;-53
2021/12/09 08:14:09;;;;;;;16.63;8.93;;;5.00;99.90;;;;;;4996673;28;20347;-53
2021/12/09 08:16:37;;;;;;;16.00;8.53;;;5.00;99.90;;;;;;4999556;28;20442;-48
2021/12/09 08:19:09;;;;;;;16.67;9.50;;;4.90;99.90;;;;;;5000388;28;20440;-50
2021/12/09 08:21:36;;;;;;;15.70;7.83;;;4.90;99.90;;;;;;4996833;28;20460;-50
2021/12/09 08:24:07;;;;;;;15.10;9.17;;;4.90;99.90;;;;;;4997993;28;20543;-53
2021/12/09 08:26:33;;;;;;;12.67;8.27;;;4.80;99.90;;;;;;4998346;28;20437;-48
2021/12/09 08:28:59;;;;;;;13.63;9.10;;;4.80;99.90;;;;;;4998422;28;20473;-52
2021/12/09 08:31:27;;;;;;;12.20;8.80;;;4.80;99.90;;;;;;4998726;28;20895;-52
2021/12/09 08:33:53;;;;;;;15.57;10.30;;;4.80;99.90;;;;;;4997167;28;20432;-51
2021/12/09 08:36:19;;;;;;;10.50;8.40;;;4.70;99.90;;;;;;4999748;28;20455;-50
2021/12/09 08:38:45;;;;;;;14.00;9.10;;;4.70;99.90;;;;;;5000033;28;20200;-53
2021/12/09 08:41:14;;;;;;;14.77;9.23;;;4.70;99.90;;;;;;4997100;28;21011;-52
2021/12/09 08:43:40;;;;;;;18.57;10.97;;;4.70;99.90;;;;;;4998109;28;20185;-51
2021/12/09 08:46:06;;;;;;;12.30;8.97;;;4.60;99.90;;;;;;4996984;28;20723;-52
2021/12/09 08:48:31;;;;;;;16.90;11.00;;;4.60;99.90;;;;;;4996401;28;20298;-49
2021/12/09 08:50:57;;;;;;;15.80;10.00;;;4.50;99.90;;;;;;4998008;28;20209;-51
2021/12/09 08:53:25;;;;;;;14.60;9.30;;;4.60;99.90;;;;;;4998788;28;20197;-50
2021/12/09 08:55:51;;;;;;;15.00;8.30;;;4.60;99.90;;;;;;4997316;28;20515;-50
2021/12/09 08:58:17;;;;;;;13.80;6.60;;;4.60;99.90;;;;;;4996912;28;20443;-50
2021/12/09 09:00:45;;;;;;;14.67;9.50;;;4.50;99.90;;;;;;4992956;28;20450;-52
2021/12/09 09:03:11;;;;;;;14.53;9.23;;;4.50;99.90;;;;;;4995096;28;20227;-49
2021/12/09 09:05:38;;;;;;;13.07;7.93;;;4.40;99.90;;;;;;4997840;28;20518;-51
2021/12/09 09:08:05;;;;;;;16.80;9.70;;;4.30;99.90;;;;;;4999993;28;20460;-48
2021/12/09 09:10:33;;;;;;;14.77;9.40;;;4.30;99.90;;;;;;4996913;28;20525;-53
2021/12/09 09:13:00;;;;;;;14.83;9.53;;;4.40;99.90;;;;;;4998108;28;20513;-52
2021/12/09 09:15:27;;;;;;;18.80;9.87;;;4.40;99.90;;;;;;5000176;28;20808;-48
2021/12/09 09:17:53;;;;;;;12.20;7.70;;;4.40;99.90;;;;;;4996543;28;20820;-52
2021/12/09 09:20:22;;;;;;;13.53;8.80;;;4.40;99.90;;;;;;4997612;28;20440;-52
2021/12/09 09:22:48;;;;;;;16.27;9.17;;;4.40;99.90;;;;;;5000280;28;20486;-52
2021/12/09 09:25:19;;;;;;;13.30;8.43;;;4.50;99.90;;;;;;4998142;28;20535;-52
2021/12/09 09:27:46;;;;;;;12.93;8.97;;;4.50;99.90;;;;;;4997965;28;20493;-52
2021/12/09 09:30:14;;;;;;;14.67;8.17;;;4.60;99.90;;;;;;4997214;28;20429;-50
2021/12/09 09:32:41;;;;;;;15.47;8.13;;;4.70;99.90;;;;;;4996760;28;21251;-50
2021/12/09 09:35:08;;;;;;;19.43;9.00;;;4.70;99.90;;;;;;4998653;28;20429;-51
2021/12/09 09:37:34;;;;;;;17.37;8.63;;;4.80;99.90;;;;;;4998922;28;20895;-52
2021/12/09 09:40:00;;;;;;;13.23;8.80;;;4.80;99.90;;;;;;4999307;28;20490;-50
2021/12/09 09:45:01;;;;;;;12.43;8.60;;;4.80;99.90;;;;;;4997256;28;20439;-50
2021/12/09 09:47:29;;;;;;;13.23;8.13;;;4.80;99.90;;;;;;4998458;28;20766;-48
2021/12/09 09:49:56;;;;;;;22.43;9.90;;;4.80;99.90;;;;;;4997742;28;20278;-48
2021/12/09 09:52:22;;;;;;;6.90;4.70;;;4.90;99.90;;;;;;4996744;28;20456;-50
2021/12/09 09:54:50;;;;;;;10.20;7.03;;;5.00;99.90;;;;;;4997771;28;20511;-48
2021/12/09 09:57:16;;;;;;;10.50;7.40;;;4.80;99.90;;;;;;4999950;28;20185;-51
2021/12/09 09:59:42;;;;;;;13.30;8.40;;;4.80;99.90;;;;;;5000756;28;20952;-54
2021/12/09 10:02:11;;;;;;;10.60;7.33;;;4.90;99.90;;;;;;5001627;28;20487;-49
2021/12/09 10:07:09;;;;;;;14.37;9.33;;;5.00;99.90;;;;;;5000637;28;20957;-50
2021/12/09 10:09:34;;;;;;;9.83;7.67;;;5.10;99.90;;;;;;4999724;28;20731;-47
2021/12/09 10:12:01;;;;;;;13.17;7.50;;;5.00;99.90;;;;;;4997760;28;20515;-51
2021/12/09 10:14:32;;;;;;;9.70;6.20;;;4.80;99.90;;;;;;4999826;28;20189;-51
2021/12/09 10:17:06;;;;;;;14.57;7.30;;;4.80;99.90;;;;;;4999174;28;20802;-50
2021/12/09 10:19:35;;;;;;;15.97;6.23;;;4.80;99.90;;;;;;5001253;28;20438;-52
2021/12/09 10:22:09;;;;;;;9.77;5.80;;;4.70;99.90;;;;;;5001066;28;20465;-51
2021/12/09 10:24:36;;;;;;;11.43;6.70;;;4.70;99.90;;;;;;4997719;28;20523;-52
2021/12/09 10:27:02;;;;;;;15.33;7.07;;;4.80;99.90;;;;;;5001899;28;20440;-51
2021/12/09 10:29:33;;;;;;;10.63;7.10;;;4.80;99.90;;;;;;5001467;28;20754;-52
2021/12/09 10:32:02;;;;;;;7.13;5.20;;;4.90;99.90;;;;;;5000001;28;20456;-49
2021/12/09 10:34:35;;;;;;;9.93;7.00;;;4.80;99.90;;;;;;4999621;28;20424;-47
2021/12/09 10:37:13;;;;;;;8.83;6.60;;;4.70;99.90;;;;;;5001098;28;21020;-53
2021/12/09 10:39:50;;;;;;;13.87;6.73;;;4.70;99.90;;;;;;5003784;28;20443;-54
2021/12/09 10:42:24;;;;;;;14.63;6.87;;;4.80;99.90;;;;;;4999872;28;20452;-54
2021/12/09 10:44:55;;;;;;;11.77;7.00;;;4.90;99.90;;;;;;5003489;28;20945;-52
2021/12/09 10:52:49;;;;;;;11.33;6.70;;;4.80;99.90;;;;;;5004390;28;20454;-52
2021/12/09 10:55:32;;;;;;;7.30;5.87;;;4.90;99.90;;;;;;5003262;28;20427;-52
2021/12/09 10:58:03;;;;;;;12.57;7.73;;;4.90;99.90;;;;;;5002080;28;21097;-50
2021/12/09 11:00:35;;;;;;;13.73;6.43;;;4.90;99.90;;;;;;5003707;28;20423;-48
2021/12/09 11:03:11;;;;;;;18.50;6.50;;;5.00;99.90;;;;;;5001836;28;20507;-54
2021/12/09 11:05:53;;;;;;;13.53;5.70;;;5.00;99.90;;;;;;5000681;28;20440;-49
2021/12/09 11:08:41;;;;;;;9.33;4.73;;;4.90;99.90;;;;;;5002526;28;20884;-50
2021/12/09 11:11:09;;;;;;;15.50;5.77;;;4.80;99.90;;;;;;4999345;28;20534;-50
2021/12/09 11:13:57;;;;;;;9.87;5.57;;;4.80;99.90;;;;;;5000239;28;20728;-50
2021/12/09 11:16:30;;;;;;;13.30;6.40;;;4.80;99.90;;;;;;5002234;28;20467;-50
2021/12/09 11:19:16;;;;;;;6.87;5.30;;;4.80;99.90;;;;;;5000690;28;20446;-54
2021/12/09 11:22:00;;;;;;;7.50;5.50;;;4.90;99.90;;;;;;4999174;28;20455;-47
2021/12/09 11:24:31;;;;;;;7.00;5.00;;;4.90;99.90;;;;;;5001896;28;20435;-53
2021/12/09 11:27:02;;;;;;;6.87;4.10;;;5.00;99.90;;;;;;5015303;28;20482;-48
2021/12/09 11:29:51;;;;;;;6.17;5.40;;;5.00;99.90;;;;;;5001478;28;20568;-48
2021/12/09 11:34:54;;;;;;;7.87;4.53;;;5.10;99.90;;;;;;4998924;28;20939;-50
2021/12/09 11:37:47;;;;;;;8.27;5.10;;;5.10;99.90;;;;;;5000433;28;20498;-50
2021/12/09 11:43:01;;;;;;;11.90;4.77;;;5.10;99.90;;;;;;5000614;28;20813;-53
2021/12/09 11:45:39;;;;;;;12.50;4.70;;;5.00;99.90;;;;;;5002466;28;20770;-48
2021/12/09 11:48:06;;;;;;;4.93;3.13;;;5.10;99.90;;;;;;4997980;28;20477;-51
2021/12/09 11:50:36;;;;;;;8.70;3.93;;;5.20;99.90;;;;;;4999382;28;20471;-51
2021/12/09 11:53:07;;;;;;;9.23;4.57;;;5.10;99.90;;;;;;5002518;28;20519;-50
2021/12/09 11:55:38;;;;;;;19.67;5.80;;;5.20;99.90;;;;;;5000382;28;20431;-48
2021/12/09 11:58:17;;;;;;;7.93;3.90;;;5.10;99.90;;;;;;4999972;28;20444;-48
2021/12/09 12:06:52;;;;;;;9.30;3.73;;;5.20;99.90;;;;;;5000413;28;20975;-51
2021/12/09 12:12:45;;;;;;;11.60;3.80;;;5.20;99.90;;;;;;4999937;28;20792;-49
2021/12/09 12:15:25;;;;;;;6.50;3.80;;;5.20;99.90;;;;;;4998173;28;20536;-51
2021/12/09 12:21:10;;;;;;;5.30;3.63;;;5.30;99.90;;;;;;5000010;28;20435;-47
2021/12/09 12:27:14;;;;;;;7.47;4.43;;;5.50;99.90;;;;;;5002247;28;20444;-49
2021/12/09 12:37:43;;;;;;;8.90;3.70;;;5.60;99.90;;;;;;4981103;28;20434;-51
2021/12/09 12:40:12;;;;;;;8.80;4.20;;;5.60;99.90;;;;;;4994329;28;20447;-47
2021/12/09 12:42:49;;;;;;;7.43;3.60;;;5.80;99.90;;;;;;4998146;28;20484;-49
2021/12/09 12:45:45;;;;;;;10.90;4.03;;;5.90;99.90;;;;;;4998264;28;22311;-50
2021/12/09 12:49:09;;;;;;;15.20;5.67;;;6.00;99.90;;;;;;4999021;28;21055;-47
2021/12/09 12:51:49;;;;;;;11.03;4.20;;;6.00;99.90;;;;;;4997832;28;20451;-50
2021/12/09 12:54:20;;;;;;;7.40;3.20;;;6.00;99.90;;;;;;4999036;28;20436;-51
2021/12/09 12:56:54;;;;;;;9.77;3.43;;;6.00;99.90;;;;;;5000656;28;20629;-50
2021/12/09 12:59:23;;;;;;;6.67;3.60;;;5.90;99.90;;;;;;5000060;28;20428;-48
2021/12/09 13:02:09;;;;;;;7.07;2.83;;;5.90;99.90;;;;;;4998294;28;20550;-48
2021/12/09 13:05:04;;;;;;;4.47;2.23;;;5.90;99.90;;;;;;4998741;28;20436;-50
2021/12/09 13:07:45;;;;;;;9.20;3.70;;;5.80;99.90;;;;;;4998368;28;20503;-51
2021/12/09 13:10:33;;;;;;;13.77;3.50;;;5.90;99.90;;;;;;4994454;28;20432;-52
2021/12/09 13:16:09;;;;;;;7.87;2.87;;;6.00;99.90;;;;;;4973317;28;20439;-50
2021/12/09 13:21:47;;;;;;;7.60;3.13;;;6.10;99.90;;;;;;4997270;28;21919;-54
2021/12/09 13:24:24;;;;;;;8.20;3.50;;;6.10;99.90;;;;;;4998474;28;20518;-52
2021/12/09 13:33:37;;;;;;;16.70;3.90;;;6.00;99.90;;;;;;5006163;28;20849;-52
2021/12/09 13:55:13;;;;;;;6.40;3.70;;;6.20;99.90;;;;;;4980726;28;20437;-51
2021/12/09 13:57:45;;;;;;;6.10;3.60;;;6.30;99.90;;;;;;4993137;28;20452;-53
2021/12/09 14:00:26;;;;;;;7.97;3.70;;;6.30;99.90;;;;;;5000443;28;20452;-49
2021/12/09 14:02:57;;;;;;;13.67;3.60;;;6.40;99.90;;;;;;5003427;28;20455;-52
2021/12/09 14:05:24;;;;;;;8.87;4.97;;;6.30;99.90;;;;;;4999862;28;20475;-51
2021/12/09 14:07:59;;;;;;;10.83;3.97;;;6.40;99.90;;;;;;5001971;28;20461;-47